sensor_id;sensor_type;location;lat;lon;timestamp;temperature;humidity
578;DHT22;275;48.492;9.214;2023-11-21T00:00:22;12.50;37.10
578;DHT22;275;48.492;9.214;2023-11-21T00:02:48;12.70;36.30
578;DHT22;275;48.492;9.214;2023-11-21T00:05:15;12.50;36.80
578;DHT22;275;48.492;9.214;2023-11-21T00:07:43;12.80;36.20
578;DHT22;275;48.492;9.214;2023-11-21T00:10:10;12.90;35.70
578;DHT22;275;48.492;9.214;2023-11-21T00:12:41;12.90;34.40
578;DHT22;275;48.492;9.214;2023-11-21T00:15:08;12.80;36.00
578;DHT22;275;48.492;9.214;2023-11-21T00:17:36;12.70;34.50
578;DHT22;275;48.492;9.214;2023-11-21T00:20:04;12.60;35.80
578;DHT22;275;48.492;9.214;2023-11-21T00:22:32;12.40;35.30
578;DHT22;275;48.492;9.214;2023-11-21T00:24:59;12.40;35.70
578;DHT22;275;48.492;9.214;2023-11-21T00:27:25;12.50;35.80
578;DHT22;275;48.492;9.214;2023-11-21T00:29:53;12.60;34.10
578;DHT22;275;48.492;9.214;2023-11-21T00:32:20;11.90;36.40
578;DHT22;275;48.492;9.214;2023-11-21T00:34:47;11.90;36.30
578;DHT22;275;48.492;9.214;2023-11-21T00:37:14;12.20;36.00
578;DHT22;275;48.492;9.214;2023-11-21T00:39:41;12.30;35.60
578;DHT22;275;48.492;9.214;2023-11-21T00:42:08;12.10;35.40
578;DHT22;275;48.492;9.214;2023-11-21T00:44:37;12.40;34.60
578;DHT22;275;48.492;9.214;2023-11-21T00:47:06;12.30;34.70
578;DHT22;275;48.492;9.214;2023-11-21T00:49:33;12.30;34.50
578;DHT22;275;48.492;9.214;2023-11-21T00:52:00;12.20;34.40
578;DHT22;275;48.492;9.214;2023-11-21T00:54:27;12.30;34.20
578;DHT22;275;48.492;9.214;2023-11-21T00:56:54;12.40;34.30
578;DHT22;275;48.492;9.214;2023-11-21T00:59:21;12.50;34.50
578;DHT22;275;48.492;9.214;2023-11-21T01:01:48;12.30;34.20
578;DHT22;275;48.492;9.214;2023-11-21T01:04:16;12.40;33.70
578;DHT22;275;48.492;9.214;2023-11-21T01:06:43;12.00;34.60
578;DHT22;275;48.492;9.214;2023-11-21T01:09:10;11.90;34.70
578;DHT22;275;48.492;9.214;2023-11-21T01:11:38;11.40;35.80
578;DHT22;275;48.492;9.214;2023-11-21T01:14:05;11.70;35.60
578;DHT22;275;48.492;9.214;2023-11-21T01:16:32;12.10;34.00
578;DHT22;275;48.492;9.214;2023-11-21T01:18:59;12.00;33.90
578;DHT22;275;48.492;9.214;2023-11-21T01:21:28;12.00;33.60
578;DHT22;275;48.492;9.214;2023-11-21T01:23:56;11.90;33.70
578;DHT22;275;48.492;9.214;2023-11-21T01:26:22;11.90;34.40
578;DHT22;275;48.492;9.214;2023-11-21T01:28:49;12.30;33.30
578;DHT22;275;48.492;9.214;2023-11-21T01:31:16;12.10;33.70
578;DHT22;275;48.492;9.214;2023-11-21T01:33:43;12.30;32.90
578;DHT22;275;48.492;9.214;2023-11-21T01:36:10;12.60;32.10
578;DHT22;275;48.492;9.214;2023-11-21T01:38:38;12.80;31.00
578;DHT22;275;48.492;9.214;2023-11-21T01:41:05;12.90;30.80
578;DHT22;275;48.492;9.214;2023-11-21T01:43:32;12.60;31.30
578;DHT22;275;48.492;9.214;2023-11-21T01:45:59;12.60;31.20
578;DHT22;275;48.492;9.214;2023-11-21T01:48:27;12.50;31.40
578;DHT22;275;48.492;9.214;2023-11-21T01:50:55;12.10;32.40
578;DHT22;275;48.492;9.214;2023-11-21T01:53:23;12.00;32.90
578;DHT22;275;48.492;9.214;2023-11-21T01:55:52;12.10;32.70
578;DHT22;275;48.492;9.214;2023-11-21T01:58:20;12.20;32.00
578;DHT22;275;48.492;9.214;2023-11-21T02:00:47;11.90;33.00
578;DHT22;275;48.492;9.214;2023-11-21T02:03:16;12.00;32.90
578;DHT22;275;48.492;9.214;2023-11-21T02:05:43;11.60;33.80
578;DHT22;275;48.492;9.214;2023-11-21T02:08:10;11.20;34.70
578;DHT22;275;48.492;9.214;2023-11-21T02:10:36;11.30;35.10
578;DHT22;275;48.492;9.214;2023-11-21T02:13:05;11.40;34.50
578;DHT22;275;48.492;9.214;2023-11-21T02:15:32;11.60;34.20
578;DHT22;275;48.492;9.214;2023-11-21T02:17:59;11.60;33.40
578;DHT22;275;48.492;9.214;2023-11-21T02:20:26;11.30;34.50
578;DHT22;275;48.492;9.214;2023-11-21T02:22:57;11.70;33.50
578;DHT22;275;48.492;9.214;2023-11-21T02:25:25;11.50;33.90
578;DHT22;275;48.492;9.214;2023-11-21T02:27:53;11.50;34.10
578;DHT22;275;48.492;9.214;2023-11-21T02:30:20;11.50;34.10
578;DHT22;275;48.492;9.214;2023-11-21T02:32:47;11.40;34.00
578;DHT22;275;48.492;9.214;2023-11-21T02:35:15;11.10;34.60
578;DHT22;275;48.492;9.214;2023-11-21T02:37:42;11.30;34.30
578;DHT22;275;48.492;9.214;2023-11-21T02:40:11;11.50;33.80
578;DHT22;275;48.492;9.214;2023-11-21T02:42:39;11.40;34.00
578;DHT22;275;48.492;9.214;2023-11-21T02:45:07;11.30;33.90
578;DHT22;275;48.492;9.214;2023-11-21T02:47:34;11.30;34.20
578;DHT22;275;48.492;9.214;2023-11-21T02:50:01;11.30;33.90
578;DHT22;275;48.492;9.214;2023-11-21T02:52:28;11.40;33.60
578;DHT22;275;48.492;9.214;2023-11-21T02:54:55;11.30;34.10
578;DHT22;275;48.492;9.214;2023-11-21T02:57:23;11.80;32.60
578;DHT22;275;48.492;9.214;2023-11-21T02:59:49;11.50;34.00
578;DHT22;275;48.492;9.214;2023-11-21T03:02:16;11.40;33.60
578;DHT22;275;48.492;9.214;2023-11-21T03:04:43;11.60;32.80
578;DHT22;275;48.492;9.214;2023-11-21T03:07:10;11.70;32.80
578;DHT22;275;48.492;9.214;2023-11-21T03:09:37;11.90;32.20
578;DHT22;275;48.492;9.214;2023-11-21T03:12:05;11.90;31.40
578;DHT22;275;48.492;9.214;2023-11-21T03:14:33;12.20;31.30
578;DHT22;275;48.492;9.214;2023-11-21T03:17:00;12.30;31.00
578;DHT22;275;48.492;9.214;2023-11-21T03:19:27;12.20;30.90
578;DHT22;275;48.492;9.214;2023-11-21T03:21:54;12.20;31.60
578;DHT22;275;48.492;9.214;2023-11-21T03:24:20;12.00;31.90
578;DHT22;275;48.492;9.214;2023-11-21T03:26:48;11.30;33.50
578;DHT22;275;48.492;9.214;2023-11-21T03:29:15;11.00;35.10
578;DHT22;275;48.492;9.214;2023-11-21T03:31:44;11.20;34.60
578;DHT22;275;48.492;9.214;2023-11-21T03:34:15;11.20;34.30
578;DHT22;275;48.492;9.214;2023-11-21T03:36:43;10.60;35.70
578;DHT22;275;48.492;9.214;2023-11-21T03:39:10;10.80;35.80
578;DHT22;275;48.492;9.214;2023-11-21T03:41:36;10.80;35.10
578;DHT22;275;48.492;9.214;2023-11-21T03:44:04;11.20;34.70
578;DHT22;275;48.492;9.214;2023-11-21T03:46:30;11.30;34.40
578;DHT22;275;48.492;9.214;2023-11-21T03:48:58;11.60;33.60
578;DHT22;275;48.492;9.214;2023-11-21T03:51:25;11.90;32.70
578;DHT22;275;48.492;9.214;2023-11-21T03:53:52;12.20;31.80
578;DHT22;275;48.492;9.214;2023-11-21T03:56:19;11.90;32.50
578;DHT22;275;48.492;9.214;2023-11-21T03:58:47;11.50;33.50
578;DHT22;275;48.492;9.214;2023-11-21T04:01:19;11.60;33.60
578;DHT22;275;48.492;9.214;2023-11-21T04:03:47;11.90;32.80
578;DHT22;275;48.492;9.214;2023-11-21T04:06:15;11.90;32.70
578;DHT22;275;48.492;9.214;2023-11-21T04:08:42;12.10;31.70
578;DHT22;275;48.492;9.214;2023-11-21T04:11:09;11.90;32.50
578;DHT22;275;48.492;9.214;2023-11-21T04:13:37;12.00;32.30
578;DHT22;275;48.492;9.214;2023-11-21T04:16:05;11.70;33.50
578;DHT22;275;48.492;9.214;2023-11-21T04:18:32;11.80;33.20
578;DHT22;275;48.492;9.214;2023-11-21T04:20:59;11.90;32.70
578;DHT22;275;48.492;9.214;2023-11-21T04:23:29;12.30;31.70
578;DHT22;275;48.492;9.214;2023-11-21T04:25:55;12.50;31.10
578;DHT22;275;48.492;9.214;2023-11-21T04:28:22;12.20;31.70
578;DHT22;275;48.492;9.214;2023-11-21T04:30:49;11.90;32.90
578;DHT22;275;48.492;9.214;2023-11-21T04:33:16;11.70;33.70
578;DHT22;275;48.492;9.214;2023-11-21T04:35:43;11.80;34.00
578;DHT22;275;48.492;9.214;2023-11-21T04:38:10;12.30;32.90
578;DHT22;275;48.492;9.214;2023-11-21T04:40:38;12.30;32.20
578;DHT22;275;48.492;9.214;2023-11-21T04:43:05;12.10;32.80
578;DHT22;275;48.492;9.214;2023-11-21T04:45:32;12.40;32.30
578;DHT22;275;48.492;9.214;2023-11-21T04:47:59;12.20;33.00
578;DHT22;275;48.492;9.214;2023-11-21T04:50:26;12.30;33.10
578;DHT22;275;48.492;9.214;2023-11-21T04:52:53;12.40;32.80
578;DHT22;275;48.492;9.214;2023-11-21T04:55:20;12.40;32.80
578;DHT22;275;48.492;9.214;2023-11-21T04:57:48;12.40;32.40
578;DHT22;275;48.492;9.214;2023-11-21T05:00:15;12.40;32.60
578;DHT22;275;48.492;9.214;2023-11-21T05:02:42;12.40;31.70
578;DHT22;275;48.492;9.214;2023-11-21T05:05:09;12.10;33.30
578;DHT22;275;48.492;9.214;2023-11-21T05:07:36;11.80;33.80
578;DHT22;275;48.492;9.214;2023-11-21T05:10:05;11.50;34.40
578;DHT22;275;48.492;9.214;2023-11-21T05:12:34;11.40;35.30
578;DHT22;275;48.492;9.214;2023-11-21T05:15:05;11.40;35.50
578;DHT22;275;48.492;9.214;2023-11-21T05:17:35;11.60;35.00
578;DHT22;275;48.492;9.214;2023-11-21T05:20:02;12.00;34.10
578;DHT22;275;48.492;9.214;2023-11-21T05:22:34;12.40;32.80
578;DHT22;275;48.492;9.214;2023-11-21T05:25:01;12.60;32.50
578;DHT22;275;48.492;9.214;2023-11-21T05:27:28;12.40;32.90
578;DHT22;275;48.492;9.214;2023-11-21T05:29:55;12.50;32.30
578;DHT22;275;48.492;9.214;2023-11-21T05:32:23;12.80;31.70
578;DHT22;275;48.492;9.214;2023-11-21T05:34:50;12.80;31.70
578;DHT22;275;48.492;9.214;2023-11-21T05:37:17;13.00;31.30
578;DHT22;275;48.492;9.214;2023-11-21T05:39:44;13.00;31.20
578;DHT22;275;48.492;9.214;2023-11-21T05:42:11;13.10;31.50
578;DHT22;275;48.492;9.214;2023-11-21T05:44:41;13.20;30.40
578;DHT22;275;48.492;9.214;2023-11-21T05:47:08;13.50;30.40
578;DHT22;275;48.492;9.214;2023-11-21T05:49:36;13.50;30.60
578;DHT22;275;48.492;9.214;2023-11-21T05:52:04;13.40;30.50
578;DHT22;275;48.492;9.214;2023-11-21T05:54:31;13.20;31.20
578;DHT22;275;48.492;9.214;2023-11-21T05:56:59;13.20;31.30
578;DHT22;275;48.492;9.214;2023-11-21T05:59:26;13.20;30.80
578;DHT22;275;48.492;9.214;2023-11-21T06:01:52;13.00;31.10
578;DHT22;275;48.492;9.214;2023-11-21T06:04:19;13.00;31.60
578;DHT22;275;48.492;9.214;2023-11-21T06:06:51;13.10;31.90
578;DHT22;275;48.492;9.214;2023-11-21T06:09:17;13.10;31.90
578;DHT22;275;48.492;9.214;2023-11-21T06:11:44;12.80;32.10
578;DHT22;275;48.492;9.214;2023-11-21T06:14:11;12.30;33.30
578;DHT22;275;48.492;9.214;2023-11-21T06:16:38;12.60;32.80
578;DHT22;275;48.492;9.214;2023-11-21T06:19:05;12.70;32.60
578;DHT22;275;48.492;9.214;2023-11-21T06:21:32;12.80;32.30
578;DHT22;275;48.492;9.214;2023-11-21T06:24:00;13.10;31.60
578;DHT22;275;48.492;9.214;2023-11-21T06:26:27;13.20;31.40
578;DHT22;275;48.492;9.214;2023-11-21T06:28:54;13.10;31.40
578;DHT22;275;48.492;9.214;2023-11-21T06:31:22;13.10;31.20
578;DHT22;275;48.492;9.214;2023-11-21T06:33:49;12.90;31.80
578;DHT22;275;48.492;9.214;2023-11-21T06:36:17;12.70;32.30
578;DHT22;275;48.492;9.214;2023-11-21T06:38:44;12.70;32.80
578;DHT22;275;48.492;9.214;2023-11-21T06:41:13;12.70;32.90
578;DHT22;275;48.492;9.214;2023-11-21T06:43:41;12.60;33.10
578;DHT22;275;48.492;9.214;2023-11-21T06:46:11;12.80;33.00
578;DHT22;275;48.492;9.214;2023-11-21T06:48:40;12.70;32.90
578;DHT22;275;48.492;9.214;2023-11-21T06:51:07;12.80;32.20
578;DHT22;275;48.492;9.214;2023-11-21T06:53:34;13.00;31.50
578;DHT22;275;48.492;9.214;2023-11-21T06:56:02;13.00;31.60
578;DHT22;275;48.492;9.214;2023-11-21T06:58:30;13.00;31.50
578;DHT22;275;48.492;9.214;2023-11-21T07:00:57;13.10;31.50
578;DHT22;275;48.492;9.214;2023-11-21T07:03:24;13.10;31.30
578;DHT22;275;48.492;9.214;2023-11-21T07:05:51;13.20;31.60
578;DHT22;275;48.492;9.214;2023-11-21T07:08:18;12.50;32.60
578;DHT22;275;48.492;9.214;2023-11-21T07:10:45;12.30;33.40
578;DHT22;275;48.492;9.214;2023-11-21T07:13:12;12.20;33.80
578;DHT22;275;48.492;9.214;2023-11-21T07:15:41;11.70;34.40
578;DHT22;275;48.492;9.214;2023-11-21T07:18:09;10.80;37.60
578;DHT22;275;48.492;9.214;2023-11-21T07:20:35;10.70;38.30
578;DHT22;275;48.492;9.214;2023-11-21T07:23:02;10.80;38.70
578;DHT22;275;48.492;9.214;2023-11-21T07:25:31;11.10;37.80
578;DHT22;275;48.492;9.214;2023-11-21T07:27:59;10.80;39.40
578;DHT22;275;48.492;9.214;2023-11-21T07:30:26;10.80;39.40
578;DHT22;275;48.492;9.214;2023-11-21T07:32:54;11.30;39.00
578;DHT22;275;48.492;9.214;2023-11-21T07:35:21;11.60;38.00
578;DHT22;275;48.492;9.214;2023-11-21T07:37:48;11.70;37.70
578;DHT22;275;48.492;9.214;2023-11-21T07:40:15;12.10;36.60
578;DHT22;275;48.492;9.214;2023-11-21T07:42:42;12.50;35.40
578;DHT22;275;48.492;9.214;2023-11-21T07:45:09;12.20;35.30
578;DHT22;275;48.492;9.214;2023-11-21T07:47:37;12.20;35.80
578;DHT22;275;48.492;9.214;2023-11-21T07:50:07;12.50;34.80
578;DHT22;275;48.492;9.214;2023-11-21T07:52:34;12.90;33.60
578;DHT22;275;48.492;9.214;2023-11-21T07:55:01;12.90;33.50
578;DHT22;275;48.492;9.214;2023-11-21T07:57:29;12.90;33.00
578;DHT22;275;48.492;9.214;2023-11-21T07:59:56;12.80;33.40
578;DHT22;275;48.492;9.214;2023-11-21T08:02:22;12.30;35.30
578;DHT22;275;48.492;9.214;2023-11-21T08:04:50;11.70;37.30
578;DHT22;275;48.492;9.214;2023-11-21T08:07:18;11.40;37.90
578;DHT22;275;48.492;9.214;2023-11-21T08:09:45;11.70;37.30
578;DHT22;275;48.492;9.214;2023-11-21T08:12:14;12.50;35.00
578;DHT22;275;48.492;9.214;2023-11-21T08:14:42;12.10;35.60
578;DHT22;275;48.492;9.214;2023-11-21T08:17:10;11.60;37.60
578;DHT22;275;48.492;9.214;2023-11-21T08:19:36;11.40;39.30
578;DHT22;275;48.492;9.214;2023-11-21T08:22:03;12.20;37.00
578;DHT22;275;48.492;9.214;2023-11-21T08:24:35;12.10;36.50
578;DHT22;275;48.492;9.214;2023-11-21T08:27:03;11.60;37.90
578;DHT22;275;48.492;9.214;2023-11-21T08:29:30;11.40;38.40
578;DHT22;275;48.492;9.214;2023-11-21T08:31:57;11.60;38.40
578;DHT22;275;48.492;9.214;2023-11-21T08:34:25;11.00;39.90
578;DHT22;275;48.492;9.214;2023-11-21T08:36:52;11.30;39.50
578;DHT22;275;48.492;9.214;2023-11-21T08:39:19;12.00;37.50
578;DHT22;275;48.492;9.214;2023-11-21T08:41:47;11.20;39.90
578;DHT22;275;48.492;9.214;2023-11-21T08:44:13;11.50;40.50
578;DHT22;275;48.492;9.214;2023-11-21T08:46:42;11.60;38.70
578;DHT22;275;48.492;9.214;2023-11-21T08:49:10;12.00;37.90
578;DHT22;275;48.492;9.214;2023-11-21T08:51:37;12.30;37.50
578;DHT22;275;48.492;9.214;2023-11-21T08:54:04;12.30;37.40
578;DHT22;275;48.492;9.214;2023-11-21T08:56:33;12.20;37.20
578;DHT22;275;48.492;9.214;2023-11-21T08:59:01;12.20;37.90
578;DHT22;275;48.492;9.214;2023-11-21T09:01:28;12.10;37.20
578;DHT22;275;48.492;9.214;2023-11-21T09:03:56;12.10;37.70
578;DHT22;275;48.492;9.214;2023-11-21T09:06:23;11.50;39.70
578;DHT22;275;48.492;9.214;2023-11-21T09:08:51;11.40;40.20
578;DHT22;275;48.492;9.214;2023-11-21T09:11:18;11.20;40.30
578;DHT22;275;48.492;9.214;2023-11-21T09:13:45;11.20;41.30
578;DHT22;275;48.492;9.214;2023-11-21T09:16:14;11.70;39.60
578;DHT22;275;48.492;9.214;2023-11-21T09:18:41;12.10;38.90
578;DHT22;275;48.492;9.214;2023-11-21T09:21:07;12.20;37.80
578;DHT22;275;48.492;9.214;2023-11-21T09:23:35;12.30;38.00
578;DHT22;275;48.492;9.214;2023-11-21T09:26:01;12.50;36.60
578;DHT22;275;48.492;9.214;2023-11-21T09:28:28;12.80;36.40
578;DHT22;275;48.492;9.214;2023-11-21T09:30:55;12.80;35.90
578;DHT22;275;48.492;9.214;2023-11-21T09:33:23;12.20;37.00
578;DHT22;275;48.492;9.214;2023-11-21T09:35:51;11.70;38.70
578;DHT22;275;48.492;9.214;2023-11-21T09:38:18;11.70;37.80
578;DHT22;275;48.492;9.214;2023-11-21T09:40:45;11.30;38.50
578;DHT22;275;48.492;9.214;2023-11-21T09:43:16;11.30;39.20
578;DHT22;275;48.492;9.214;2023-11-21T09:45:46;11.20;39.50
578;DHT22;275;48.492;9.214;2023-11-21T09:48:14;11.20;39.60
578;DHT22;275;48.492;9.214;2023-11-21T09:50:43;11.70;38.50
578;DHT22;275;48.492;9.214;2023-11-21T09:53:13;11.60;37.60
578;DHT22;275;48.492;9.214;2023-11-21T09:55:44;11.40;38.40
578;DHT22;275;48.492;9.214;2023-11-21T09:58:11;11.90;37.70
578;DHT22;275;48.492;9.214;2023-11-21T10:00:40;11.60;38.00
578;DHT22;275;48.492;9.214;2023-11-21T10:03:07;11.70;37.40
578;DHT22;275;48.492;9.214;2023-11-21T10:05:34;11.60;37.30
578;DHT22;275;48.492;9.214;2023-11-21T10:08:05;11.60;36.30
578;DHT22;275;48.492;9.214;2023-11-21T10:10:33;11.30;38.30
578;DHT22;275;48.492;9.214;2023-11-21T10:13:02;11.50;38.00
578;DHT22;275;48.492;9.214;2023-11-21T10:15:34;11.90;36.90
578;DHT22;275;48.492;9.214;2023-11-21T10:18:02;12.10;36.90
578;DHT22;275;48.492;9.214;2023-11-21T10:20:30;12.80;35.70
578;DHT22;275;48.492;9.214;2023-11-21T10:22:59;12.90;33.50
578;DHT22;275;48.492;9.214;2023-11-21T10:25:28;13.00;33.80
578;DHT22;275;48.492;9.214;2023-11-21T10:27:58;13.30;32.90
578;DHT22;275;48.492;9.214;2023-11-21T10:30:32;13.60;32.60
578;DHT22;275;48.492;9.214;2023-11-21T10:33:03;13.50;34.50
578;DHT22;275;48.492;9.214;2023-11-21T10:35:42;13.50;35.70
578;DHT22;275;48.492;9.214;2023-11-21T10:38:12;13.20;36.90
578;DHT22;275;48.492;9.214;2023-11-21T10:40:41;13.00;37.90
578;DHT22;275;48.492;9.214;2023-11-21T10:43:08;13.10;38.10
578;DHT22;275;48.492;9.214;2023-11-21T10:45:36;12.80;37.90
578;DHT22;275;48.492;9.214;2023-11-21T10:48:05;12.20;40.30
578;DHT22;275;48.492;9.214;2023-11-21T10:50:34;11.70;41.90
578;DHT22;275;48.492;9.214;2023-11-21T10:53:02;12.30;40.40
578;DHT22;275;48.492;9.214;2023-11-21T10:55:29;11.80;40.80
578;DHT22;275;48.492;9.214;2023-11-21T10:57:59;12.00;41.40
578;DHT22;275;48.492;9.214;2023-11-21T11:00:27;12.00;41.00
578;DHT22;275;48.492;9.214;2023-11-21T11:02:55;11.90;41.60
578;DHT22;275;48.492;9.214;2023-11-21T11:05:23;12.40;40.30
578;DHT22;275;48.492;9.214;2023-11-21T11:07:52;12.80;39.90
578;DHT22;275;48.492;9.214;2023-11-21T11:10:25;12.50;40.30
578;DHT22;275;48.492;9.214;2023-11-21T11:12:53;12.40;39.90
578;DHT22;275;48.492;9.214;2023-11-21T11:15:22;12.20;40.50
578;DHT22;275;48.492;9.214;2023-11-21T11:17:50;11.80;42.20
578;DHT22;275;48.492;9.214;2023-11-21T11:20:17;12.10;42.60
578;DHT22;275;48.492;9.214;2023-11-21T11:22:55;12.20;42.00
578;DHT22;275;48.492;9.214;2023-11-21T11:25:38;12.80;40.40
578;DHT22;275;48.492;9.214;2023-11-21T11:28:12;13.00;39.00
578;DHT22;275;48.492;9.214;2023-11-21T11:30:51;12.10;41.40
578;DHT22;275;48.492;9.214;2023-11-21T11:33:28;12.00;41.20
578;DHT22;275;48.492;9.214;2023-11-21T11:36:03;12.70;39.10
578;DHT22;275;48.492;9.214;2023-11-21T11:38:34;13.20;38.00
578;DHT22;275;48.492;9.214;2023-11-21T11:41:03;13.30;36.90
578;DHT22;275;48.492;9.214;2023-11-21T11:43:30;13.00;37.10
578;DHT22;275;48.492;9.214;2023-11-21T11:46:01;13.70;36.30
578;DHT22;275;48.492;9.214;2023-11-21T11:48:30;13.90;35.60
578;DHT22;275;48.492;9.214;2023-11-21T11:51:02;13.50;36.40
578;DHT22;275;48.492;9.214;2023-11-21T11:53:35;13.80;36.10
578;DHT22;275;48.492;9.214;2023-11-21T11:56:25;14.20;34.40
578;DHT22;275;48.492;9.214;2023-11-21T11:58:53;14.10;35.20
578;DHT22;275;48.492;9.214;2023-11-21T12:01:24;13.60;36.10
578;DHT22;275;48.492;9.214;2023-11-21T12:04:23;13.00;38.60
578;DHT22;275;48.492;9.214;2023-11-21T12:06:55;13.00;39.40
578;DHT22;275;48.492;9.214;2023-11-21T12:09:24;12.80;40.00
578;DHT22;275;48.492;9.214;2023-11-21T12:11:52;12.60;41.30
578;DHT22;275;48.492;9.214;2023-11-21T12:14:20;12.00;43.00
578;DHT22;275;48.492;9.214;2023-11-21T12:16:49;12.20;42.60
578;DHT22;275;48.492;9.214;2023-11-21T12:19:17;12.30;41.90
578;DHT22;275;48.492;9.214;2023-11-21T12:21:44;12.50;41.10
578;DHT22;275;48.492;9.214;2023-11-21T12:24:11;12.50;41.50
578;DHT22;275;48.492;9.214;2023-11-21T12:26:39;12.70;41.10
578;DHT22;275;48.492;9.214;2023-11-21T12:29:06;12.50;41.20
578;DHT22;275;48.492;9.214;2023-11-21T12:31:34;12.80;40.70
578;DHT22;275;48.492;9.214;2023-11-21T12:34:03;12.80;40.90
578;DHT22;275;48.492;9.214;2023-11-21T12:36:32;12.50;41.40
578;DHT22;275;48.492;9.214;2023-11-21T12:39:00;12.60;42.00
578;DHT22;275;48.492;9.214;2023-11-21T12:41:28;12.60;41.30
578;DHT22;275;48.492;9.214;2023-11-21T12:43:56;12.60;41.60
578;DHT22;275;48.492;9.214;2023-11-21T12:46:23;11.70;44.20
578;DHT22;275;48.492;9.214;2023-11-21T12:48:51;11.60;45.10
578;DHT22;275;48.492;9.214;2023-11-21T12:51:21;11.50;46.00
578;DHT22;275;48.492;9.214;2023-11-21T12:53:48;12.00;44.20
578;DHT22;275;48.492;9.214;2023-11-21T12:56:15;12.60;42.40
578;DHT22;275;48.492;9.214;2023-11-21T12:58:45;12.80;41.40
578;DHT22;275;48.492;9.214;2023-11-21T13:01:13;13.20;40.30
578;DHT22;275;48.492;9.214;2023-11-21T13:03:46;13.10;40.60
578;DHT22;275;48.492;9.214;2023-11-21T13:06:14;13.30;39.60
578;DHT22;275;48.492;9.214;2023-11-21T13:08:44;13.10;39.90
578;DHT22;275;48.492;9.214;2023-11-21T13:11:11;12.60;42.10
578;DHT22;275;48.492;9.214;2023-11-21T13:13:40;12.50;42.30
578;DHT22;275;48.492;9.214;2023-11-21T13:16:08;12.70;41.70
578;DHT22;275;48.492;9.214;2023-11-21T13:18:35;12.90;41.10
578;DHT22;275;48.492;9.214;2023-11-21T13:21:04;13.30;40.40
578;DHT22;275;48.492;9.214;2023-11-21T13:23:36;13.50;38.50
578;DHT22;275;48.492;9.214;2023-11-21T13:26:05;13.40;39.20
578;DHT22;275;48.492;9.214;2023-11-21T13:28:32;13.50;38.90
578;DHT22;275;48.492;9.214;2023-11-21T13:31:00;13.60;38.10
578;DHT22;275;48.492;9.214;2023-11-21T13:33:35;13.50;39.00
578;DHT22;275;48.492;9.214;2023-11-21T13:36:04;13.50;39.80
578;DHT22;275;48.492;9.214;2023-11-21T13:38:33;13.80;38.60
578;DHT22;275;48.492;9.214;2023-11-21T13:41:01;13.90;38.10
578;DHT22;275;48.492;9.214;2023-11-21T13:43:34;13.60;38.00
578;DHT22;275;48.492;9.214;2023-11-21T13:46:02;13.20;39.00
578;DHT22;275;48.492;9.214;2023-11-21T13:48:36;13.10;39.90
578;DHT22;275;48.492;9.214;2023-11-21T13:51:08;13.40;38.30
578;DHT22;275;48.492;9.214;2023-11-21T13:53:42;13.80;37.30
578;DHT22;275;48.492;9.214;2023-11-21T13:56:10;13.70;38.00
578;DHT22;275;48.492;9.214;2023-11-21T13:58:40;13.40;39.70
578;DHT22;275;48.492;9.214;2023-11-21T14:01:12;13.00;40.50
578;DHT22;275;48.492;9.214;2023-11-21T14:03:58;13.20;40.40
578;DHT22;275;48.492;9.214;2023-11-21T14:06:34;13.40;40.10
578;DHT22;275;48.492;9.214;2023-11-21T14:09:11;13.60;38.80
578;DHT22;275;48.492;9.214;2023-11-21T14:11:39;13.50;38.80
578;DHT22;275;48.492;9.214;2023-11-21T14:14:07;13.50;38.30
578;DHT22;275;48.492;9.214;2023-11-21T14:16:35;13.60;38.20
578;DHT22;275;48.492;9.214;2023-11-21T14:19:02;13.90;37.60
578;DHT22;275;48.492;9.214;2023-11-21T14:21:41;13.80;37.60
578;DHT22;275;48.492;9.214;2023-11-21T14:24:09;13.90;37.50
578;DHT22;275;48.492;9.214;2023-11-21T14:26:39;13.40;39.00
578;DHT22;275;48.492;9.214;2023-11-21T14:29:07;13.10;40.30
578;DHT22;275;48.492;9.214;2023-11-21T14:31:36;12.80;41.00
578;DHT22;275;48.492;9.214;2023-11-21T14:34:03;12.90;40.50
578;DHT22;275;48.492;9.214;2023-11-21T14:36:32;13.30;39.30
578;DHT22;275;48.492;9.214;2023-11-21T14:38:58;13.30;38.90
578;DHT22;275;48.492;9.214;2023-11-21T14:41:25;13.40;38.20
578;DHT22;275;48.492;9.214;2023-11-21T14:43:53;13.40;37.70
578;DHT22;275;48.492;9.214;2023-11-21T14:46:22;13.50;37.00
578;DHT22;275;48.492;9.214;2023-11-21T14:48:49;13.70;36.60
578;DHT22;275;48.492;9.214;2023-11-21T14:51:24;13.90;36.00
578;DHT22;275;48.492;9.214;2023-11-21T14:53:56;13.90;35.60
578;DHT22;275;48.492;9.214;2023-11-21T14:56:26;14.00;35.80
578;DHT22;275;48.492;9.214;2023-11-21T14:58:57;14.10;35.60
578;DHT22;275;48.492;9.214;2023-11-21T15:01:26;13.70;36.90
578;DHT22;275;48.492;9.214;2023-11-21T15:04:08;13.90;36.30
578;DHT22;275;48.492;9.214;2023-11-21T15:06:40;14.20;36.00
578;DHT22;275;48.492;9.214;2023-11-21T15:09:08;14.10;36.40
578;DHT22;275;48.492;9.214;2023-11-21T15:12:01;14.00;36.50
578;DHT22;275;48.492;9.214;2023-11-21T15:14:39;13.90;36.80
578;DHT22;275;48.492;9.214;2023-11-21T15:17:06;13.70;37.20
578;DHT22;275;48.492;9.214;2023-11-21T15:19:33;13.50;37.30
578;DHT22;275;48.492;9.214;2023-11-21T15:22:01;13.30;38.20
578;DHT22;275;48.492;9.214;2023-11-21T15:24:28;13.20;38.40
578;DHT22;275;48.492;9.214;2023-11-21T15:26:55;12.90;39.70
578;DHT22;275;48.492;9.214;2023-11-21T15:29:23;12.70;40.50
578;DHT22;275;48.492;9.214;2023-11-21T15:31:51;12.80;40.90
578;DHT22;275;48.492;9.214;2023-11-21T15:34:21;13.00;40.30
578;DHT22;275;48.492;9.214;2023-11-21T15:36:48;12.50;42.60
578;DHT22;275;48.492;9.214;2023-11-21T15:39:18;12.10;44.20
578;DHT22;275;48.492;9.214;2023-11-21T15:41:47;11.60;46.30
578;DHT22;275;48.492;9.214;2023-11-21T15:44:14;11.30;48.00
578;DHT22;275;48.492;9.214;2023-11-21T15:46:42;11.30;47.80
578;DHT22;275;48.492;9.214;2023-11-21T15:49:09;11.60;46.40
578;DHT22;275;48.492;9.214;2023-11-21T15:51:39;11.50;47.30
578;DHT22;275;48.492;9.214;2023-11-21T15:54:06;11.90;45.80
578;DHT22;275;48.492;9.214;2023-11-21T15:56:34;12.10;44.00
578;DHT22;275;48.492;9.214;2023-11-21T15:59:01;12.40;43.20
578;DHT22;275;48.492;9.214;2023-11-21T16:01:29;12.20;43.80
578;DHT22;275;48.492;9.214;2023-11-21T16:03:57;12.20;44.00
578;DHT22;275;48.492;9.214;2023-11-21T16:06:26;12.10;44.20
578;DHT22;275;48.492;9.214;2023-11-21T16:08:54;12.10;44.90
578;DHT22;275;48.492;9.214;2023-11-21T16:11:24;12.50;43.50
578;DHT22;275;48.492;9.214;2023-11-21T16:13:51;12.50;43.60
578;DHT22;275;48.492;9.214;2023-11-21T16:16:21;12.70;42.40
578;DHT22;275;48.492;9.214;2023-11-21T16:18:47;12.70;42.50
578;DHT22;275;48.492;9.214;2023-11-21T16:21:16;12.40;43.50
578;DHT22;275;48.492;9.214;2023-11-21T16:23:43;12.00;45.50
578;DHT22;275;48.492;9.214;2023-11-21T16:26:10;12.20;44.50
578;DHT22;275;48.492;9.214;2023-11-21T16:28:37;12.00;45.00
578;DHT22;275;48.492;9.214;2023-11-21T16:31:05;11.90;45.70
578;DHT22;275;48.492;9.214;2023-11-21T16:33:32;12.00;45.20
578;DHT22;275;48.492;9.214;2023-11-21T16:35:59;12.20;44.40
578;DHT22;275;48.492;9.214;2023-11-21T16:38:27;12.20;44.40
578;DHT22;275;48.492;9.214;2023-11-21T16:40:54;12.10;44.90